A17 weather

Bremer Bay Airport
Bremer Bay, Western Australia, Australia

Public forecast

Using degrees Celsius for public forecast. Weather courtesy of forecast.io.

METAR (pilot weather report)

Closest report is Albany Airport, 82.4 nm (152.7 km) WSW. Retrieved 2019/05/25 22:00 UTC (24 minutes ago):

YABA 252200Z AUTO 30007KT 9999 // OVC038 11/10 Q1027

TAF (pilot weather forecast)

Closest forecast is Perth Jandakot Airport, 220.9 nm (409.2 km) NW. Retrieved 2019/05/25 18:00 UTC (4 hours ago):

TAF YPJT 251616Z 2518/2612 13005KT CAVOK FM260000 10012KT CAVOK